首页
METAR-TAF:

METAR-TAF

机场 :

空军基地

多瑙河畔圖爾恩, 奥地利

纬度: 48-19N, 经度: 016-07E, 海拔: 175米

METAR: 丢失

时间: 05:06 (04:06 UTC)

预报

该预报发布于16小时和51分钟前的11:15 UTC
预报有效从11日的 12点(UTC)到 11日的 21点(UTC)
风速5节,风向
能见度10公里或以上
少量云层高于30000英尺

TAF: LOXT 111115Z 1112/1121 08005KT 9999 FEW300

超过4000个机场的气象观测和天气预报(METAR&TAF报告)。

可查询的气象台以黄色和红色小点在地图上表示。

将鼠标移到小点上方,可查看气象台名称。

然后点击查看天气观测和预报。

如需切换地图:点击带黑十字的绿色按钮放大地图;点击带横线的绿色按钮缩小地图;或者点击绿色箭头查看邻近地区的地图。


METAR-TAF: